Aérodrome :
LOGIN :

S'inscrire | Disclaimer

   EN    FR    IT 

 










Légende :    VFR   VFR Marginal   IFR   IFR Intensif   IFR Très Intensif
Visi : 
Plafond : 
>= 8 km
>= 3000ft
5 à 8 km
1000 à 3000 ft
1500m à 5 km
500 à 1000 ft
800 à 1500m
200 à 500 ft
< 800m
< 200 ft
Symboles :   Orages  Brouillard  Fortes neiges  Fortes précipitations  Vent > 20 kt
SIGMETs :   Divers  Orages  Givrage  Turbulence  Onde Orograph.  Cendres Volcan.






- Altitude de l'aérodrome : 609 ft
- Code IATA : BJZ


LEBZ - Badajoz

METARs EXPIRÉS :
  • 161930Z 28012KT CAVOK 26/12 Q1013
  • 161900Z 28013KT CAVOK 27/11 Q1013
  • 161830Z 29015KT 260V320 CAVOK 28/11 Q1013
  • 161800Z 27015KT 240V300 CAVOK 29/11 Q1013
  • 161730Z 26013KT CAVOK 29/10 Q1012

TAF TAF LEBZ
Valide du 16 à 21h jusqu'au 17 à 21h UTC


162000Z 1621/1721 27006KT CAVOK TX33/1715Z TN14/1705Z



MET'MAP, la Météo Aéronautique d'un coup d'oeil ! - Copyright ORBIFLY Décembre 2007 - Disclaimer

ORBIFLY MET'MAP TEAM :

Programmation & Développement : Alexandra Zaïnal
Sur une idée originale de : Baudouin d'Aumeries
Soutien technique & logistique : Manuel Goepfert
Assistance : Marc-Olivier Méhu




SOURCES & CREDITS :

   NOAA